Time;durP1;ratioP1;P1;durP2;ratioP2;P2;SDS_P1;SDS_P2;PMS_P1;PMS_P2;Temp;Humidity;BMP_temperature;BMP_pressure;BME280_temperature;BME280_humidity;BME280_pressure;Samples;Min_cycle;Max_cycle;Signal;HPM_P1;HPM_P2
2021/12/15 00:01:16;;;;;;;;;;;9.90;99.90;;;;;;5079035;28;19919;-82
2021/12/15 00:03:42;;;;;;;;;;;9.90;99.90;;;;;;5078351;28;19913;-82
2021/12/15 00:06:13;;;;;;;;;;;9.90;99.90;;;;;;5084257;28;19958;-82
2021/12/15 00:08:39;;;;;;;;;;;9.90;99.90;;;;;;5078939;28;19947;-82
2021/12/15 00:11:05;;;;;;;;;;;9.90;99.90;;;;;;5080536;28;20423;-82
2021/12/15 00:13:31;;;;;;;;;;;9.90;99.90;;;;;;5079518;28;19970;-82
2021/12/15 00:15:57;;;;;;;;;;;9.90;99.90;;;;;;5079212;28;19913;-81
2021/12/15 00:18:22;;;;;;;;;;;9.90;99.90;;;;;;5078275;28;19912;-82
2021/12/15 00:20:48;;;;;;;;;;;10.00;99.90;;;;;;5074023;28;19913;-82
2021/12/15 00:23:14;;;;;;;;;;;10.00;99.90;;;;;;5080057;28;19920;-81
2021/12/15 00:25:41;;;;;;;;;;;9.90;99.90;;;;;;5078807;28;19919;-82
2021/12/15 00:28:07;;;;;;;;;;;9.90;99.90;;;;;;5075623;28;19943;-81
2021/12/15 00:30:32;;;;;;;;;;;9.90;99.90;;;;;;5082340;28;19913;-82
2021/12/15 00:32:58;;;;;;;;;;;9.90;99.90;;;;;;5072671;28;19982;-82
2021/12/15 00:35:24;;;;;;;;;;;9.90;99.90;;;;;;5066063;28;19966;-81
2021/12/15 00:37:50;;;;;;;;;;;9.90;99.90;;;;;;5075271;28;19954;-81
2021/12/15 00:40:17;;;;;;;;;;;9.90;99.90;;;;;;5077854;28;19958;-81
2021/12/15 00:42:43;;;;;;;;;;;9.90;99.90;;;;;;5075164;28;19912;-81
2021/12/15 00:45:09;;;;;;;;;;;9.90;99.90;;;;;;5074379;28;19917;-81
2021/12/15 00:47:35;;;;;;;;;;;9.90;99.90;;;;;;5075333;28;20290;-82
2021/12/15 00:50:06;;;;;;;;;;;9.90;99.90;;;;;;5074650;28;20011;-82
2021/12/15 00:52:35;;;;;;;;;;;9.90;99.90;;;;;;5073301;28;19995;-82
2021/12/15 00:55:01;;;;;;;;;;;9.90;99.90;;;;;;5074645;28;19974;-81
2021/12/15 00:57:27;;;;;;;;;;;9.90;99.90;;;;;;5073825;28;20314;-81
2021/12/15 00:59:52;;;;;;;;;;;9.90;99.90;;;;;;5079128;28;19961;-82
2021/12/15 01:02:18;;;;;;;;;;;10.00;99.90;;;;;;5076454;28;19991;-81
2021/12/15 01:04:43;;;;;;;;;;;9.90;99.90;;;;;;5074693;28;19923;-82
2021/12/15 01:07:10;;;;;;;;;;;10.00;99.90;;;;;;5078710;28;19915;-81
2021/12/15 01:09:40;;;;;;;;;;;9.90;99.90;;;;;;5078760;28;19970;-82
2021/12/15 01:12:17;;;;;;;;;;;10.00;99.90;;;;;;5078930;28;19919;-82
2021/12/15 01:20:23;;;;;;;;;;;9.90;99.90;;;;;;5082253;28;19919;-82
2021/12/15 01:22:50;;;;;;;;;;;9.90;99.90;;;;;;5078208;28;19951;-82
2021/12/15 01:25:25;;;;;;;;;;;9.90;99.90;;;;;;5077408;28;19924;-82
2021/12/15 01:27:51;;;;;;;;;;;9.90;99.90;;;;;;5072284;28;19917;-82
2021/12/15 01:30:19;;;;;;;;;;;9.90;99.90;;;;;;5066927;28;19912;-82
2021/12/15 01:32:44;;;;;;;;;;;9.90;99.90;;;;;;5077601;28;20035;-82
2021/12/15 01:35:10;;;;;;;;;;;9.90;99.90;;;;;;5077378;28;20324;-82
2021/12/15 01:37:36;;;;;;;;;;;9.90;99.90;;;;;;5077761;28;19956;-82
2021/12/15 01:40:03;;;;;;;;;;;9.90;99.90;;;;;;5076483;28;19919;-81
2021/12/15 01:42:31;;;;;;;;;;;9.90;99.90;;;;;;5075985;28;19983;-81
2021/12/15 01:47:41;;;;;;;;;;;9.90;1.00;;;;;;5077907;28;19962;-82
2021/12/15 01:50:08;;;;;;;;;;;9.80;1.00;;;;;;5076044;28;19917;-82
2021/12/15 01:52:36;;;;;;;;;;;9.80;1.00;;;;;;5075549;28;19981;-82
2021/12/15 01:55:06;;;;;;;;;;;9.70;1.00;;;;;;5072245;28;19916;-81
2021/12/15 01:57:34;;;;;;;;;;;9.70;1.00;;;;;;5075457;28;20321;-81
2021/12/15 02:00:00;;;;;;;;;;;9.70;1.00;;;;;;5077949;28;19978;-82
2021/12/15 02:02:26;;;;;;;;;;;9.60;1.00;;;;;;5074276;28;19915;-82
2021/12/15 02:04:51;;;;;;;;;;;9.60;1.00;;;;;;5074236;28;20007;-82
2021/12/15 02:07:18;;;;;;;;;;;9.60;1.00;;;;;;5074482;28;19915;-82
2021/12/15 02:12:22;;;;;;;;;;;9.50;1.00;;;;;;5075721;28;19911;-81
2021/12/15 02:14:48;;;;;;;;;;;9.50;1.00;;;;;;5078270;28;19909;-82
2021/12/15 02:17:14;;;;;;;;;;;9.50;1.00;;;;;;5074298;28;19966;-82
2021/12/15 02:19:39;;;;;;;;;;;9.40;1.00;;;;;;5072919;28;19908;-81
2021/12/15 02:22:05;;;;;;;;;;;9.40;1.00;;;;;;5075481;28;20409;-82
2021/12/15 02:24:34;;;;;;;;;;;9.40;1.00;;;;;;5073642;28;20378;-81
2021/12/15 02:27:00;;;;;;;;;;;9.40;1.00;;;;;;5074681;28;20367;-82
2021/12/15 02:29:30;;;;;;;;;;;9.40;1.00;;;;;;5068222;28;19931;-82
2021/12/15 02:32:10;;;;;;;;;;;9.30;1.00;;;;;;5074706;28;19927;-82
2021/12/15 02:37:20;;;;;;;;;;;9.30;1.00;;;;;;5076557;28;20417;-82
2021/12/15 02:39:47;;;;;;;;;;;9.30;1.00;;;;;;5078041;28;19919;-82
2021/12/15 02:42:13;;;;;;;;;;;9.30;1.00;;;;;;5081038;28;19960;-82
2021/12/15 02:44:43;;;;;;;;;;;9.30;1.00;;;;;;5076434;28;19916;-82
2021/12/15 02:47:09;;;;;;;;;;;9.30;1.00;;;;;;5076857;28;19912;-82
2021/12/15 02:49:35;;;;;;;;;;;9.30;1.00;;;;;;5077784;28;19999;-82
2021/12/15 02:52:00;;;;;;;;;;;9.30;1.00;;;;;;5078445;28;19986;-82
2021/12/15 02:54:26;;;;;;;;;;;9.30;1.00;;;;;;5082583;28;19908;-82
2021/12/15 02:56:53;;;;;;;;;;;9.30;1.00;;;;;;5075414;28;19935;-81
2021/12/15 02:59:25;;;;;;;;;;;9.30;1.00;;;;;;5076644;28;19931;-82
2021/12/15 03:04:51;;;;;;;;;;;9.30;1.00;;;;;;5024384;28;19920;-82
2021/12/15 03:17:54;;;;;;;;;;;9.30;1.00;;;;;;5075615;28;19920;-82
2021/12/15 03:20:19;;;;;;;;;;;9.30;1.00;;;;;;5076873;28;19908;-82
2021/12/15 03:22:45;;;;;;;;;;;9.30;1.00;;;;;;5074777;28;19940;-82
2021/12/15 03:25:10;;;;;;;;;;;9.30;1.00;;;;;;5074542;28;19916;-82
2021/12/15 03:36:02;;;;;;;;;;;9.30;1.00;;;;;;5078337;28;19918;-82
2021/12/15 03:38:28;;;;;;;;;;;9.30;1.00;;;;;;5073532;28;19978;-82
2021/12/15 03:40:54;;;;;;;;;;;9.30;1.00;;;;;;5078004;28;19916;-82
2021/12/15 03:43:21;;;;;;;;;;;9.30;1.00;;;;;;5077062;28;20280;-82
2021/12/15 03:45:50;;;;;;;;;;;9.30;1.00;;;;;;5078477;28;19916;-81
2021/12/15 03:48:18;;;;;;;;;;;9.30;1.00;;;;;;5078101;28;19924;-81
2021/12/15 03:50:44;;;;;;;;;;;9.20;1.00;;;;;;5078166;28;19908;-81
2021/12/15 03:53:10;;;;;;;;;;;9.20;1.00;;;;;;5077524;28;19916;-81
2021/12/15 03:55:37;;;;;;;;;;;9.20;1.00;;;;;;5078673;28;19967;-82
2021/12/15 03:58:06;;;;;;;;;;;9.20;1.00;;;;;;5077916;28;19920;-81
2021/12/15 04:00:32;;;;;;;;;;;9.20;1.00;;;;;;5077978;28;19909;-81
2021/12/15 04:02:57;;;;;;;;;;;9.20;1.00;;;;;;5076760;28;19920;-82
2021/12/15 04:05:23;;;;;;;;;;;9.20;1.00;;;;;;5077652;28;19943;-82
2021/12/15 04:07:49;;;;;;;;;;;9.20;1.00;;;;;;5077577;28;19963;-82
2021/12/15 04:10:19;;;;;;;;;;;9.20;1.00;;;;;;5086517;28;19912;-82
2021/12/15 04:12:45;;;;;;;;;;;9.20;1.00;;;;;;5078836;28;19920;-82
2021/12/15 04:17:49;;;;;;;;;;;9.20;1.00;;;;;;5078692;28;19918;-82
2021/12/15 04:20:17;;;;;;;;;;;9.20;1.00;;;;;;5080360;28;19908;-82
2021/12/15 04:22:42;;;;;;;;;;;9.20;1.00;;;;;;5076214;28;19916;-82
2021/12/15 04:25:10;;;;;;;;;;;9.30;1.00;;;;;;5078863;28;20098;-82
2021/12/15 04:27:35;;;;;;;;;;;9.30;1.00;;;;;;5076129;28;19959;-82
2021/12/15 04:30:02;;;;;;;;;;;9.20;1.00;;;;;;5080993;28;19916;-82
2021/12/15 04:32:30;;;;;;;;;;;9.30;1.00;;;;;;5082632;28;19922;-82
2021/12/15 04:34:56;;;;;;;;;;;9.20;1.00;;;;;;5080378;28;19995;-82
2021/12/15 04:37:21;;;;;;;;;;;9.20;1.00;;;;;;5079366;28;19948;-82
2021/12/15 04:39:47;;;;;;;;;;;9.20;1.00;;;;;;5081625;28;19919;-82
2021/12/15 04:42:12;;;;;;;;;;;9.20;1.00;;;;;;5076788;28;19921;-82
2021/12/15 04:44:38;;;;;;;;;;;9.20;1.00;;;;;;5078704;28;20005;-82
2021/12/15 04:47:08;;;;;;;;;;;9.10;1.00;;;;;;5078510;28;19923;-82
2021/12/15 04:49:36;;;;;;;;;;;9.10;1.00;;;;;;5077714;28;20380;-82
2021/12/15 04:52:02;;;;;;;;;;;9.20;1.00;;;;;;5078074;28;20011;-82
2021/12/15 04:54:28;;;;;;;;;;;9.10;1.00;;;;;;5080264;28;19948;-81
2021/12/15 04:56:54;;;;;;;;;;;9.10;1.00;;;;;;5074548;28;19920;-81
2021/12/15 04:59:19;;;;;;;;;;;9.10;1.00;;;;;;5075233;28;19915;-82
2021/12/15 05:01:45;;;;;;;;;;;9.10;1.00;;;;;;5075111;28;19932;-81
2021/12/15 05:04:11;;;;;;;;;;;9.10;1.00;;;;;;5074955;28;19920;-82
2021/12/15 05:06:36;;;;;;;;;;;9.10;1.00;;;;;;5075140;28;20295;-82
2021/12/15 05:09:03;;;;;;;;;;;9.10;1.00;;;;;;5076225;28;19908;-82
2021/12/15 05:11:29;;;;;;;;;;;9.20;1.00;;;;;;5078372;28;19947;-82
2021/12/15 05:13:55;;;;;;;;;;;9.20;1.00;;;;;;5075617;28;19913;-82
2021/12/15 05:16:20;;;;;;;;;;;9.20;1.00;;;;;;5075130;28;20035;-82
2021/12/15 05:18:46;;;;;;;;;;;9.10;1.00;;;;;;5075460;28;19912;-82
2021/12/15 05:21:11;;;;;;;;;;;9.20;1.00;;;;;;5076613;28;20319;-82
2021/12/15 05:23:38;;;;;;;;;;;9.10;1.00;;;;;;5078977;28;19955;-82
2021/12/15 05:26:04;;;;;;;;;;;9.20;1.00;;;;;;5074488;28;19913;-82
2021/12/15 05:28:30;;;;;;;;;;;9.10;1.00;;;;;;5072254;28;19967;-82
2021/12/15 05:30:56;;;;;;;;;;;9.10;1.00;;;;;;5074673;28;19913;-81
2021/12/15 05:33:22;;;;;;;;;;;9.10;1.00;;;;;;5075172;28;19949;-82
2021/12/15 05:35:48;;;;;;;;;;;9.10;1.00;;;;;;5073432;28;20369;-81
2021/12/15 05:38:13;;;;;;;;;;;9.10;1.00;;;;;;5075051;28;19962;-81
2021/12/15 05:40:39;;;;;;;;;;;9.20;1.00;;;;;;5081424;28;19994;-82
2021/12/15 05:43:05;;;;;;;;;;;9.10;1.00;;;;;;5076152;28;19909;-82
2021/12/15 05:45:32;;;;;;;;;;;9.10;1.00;;;;;;5082463;28;19917;-82
2021/12/15 05:47:58;;;;;;;;;;;9.10;1.00;;;;;;5075565;28;19909;-82
2021/12/15 05:50:26;;;;;;;;;;;9.20;1.00;;;;;;5079372;28;19965;-82
2021/12/15 05:52:51;;;;;;;;;;;9.20;1.00;;;;;;5076756;28;19919;-82
2021/12/15 05:55:17;;;;;;;;;;;9.20;1.00;;;;;;5076695;28;20273;-81
2021/12/15 05:57:43;;;;;;;;;;;9.20;1.00;;;;;;5076221;28;20344;-82
2021/12/15 06:00:11;;;;;;;;;;;9.20;1.00;;;;;;5077087;28;19959;-82
2021/12/15 06:02:36;;;;;;;;;;;9.20;1.00;;;;;;5076103;28;19908;-82
2021/12/15 06:05:02;;;;;;;;;;;9.20;1.00;;;;;;5076623;28;19922;-82
2021/12/15 06:07:27;;;;;;;;;;;9.20;1.00;;;;;;5076169;28;19920;-82
2021/12/15 06:09:53;;;;;;;;;;;9.20;1.00;;;;;;5077708;28;19912;-81
2021/12/15 06:12:18;;;;;;;;;;;9.10;1.00;;;;;;5076375;28;19958;-81
2021/12/15 06:14:44;;;;;;;;;;;9.20;1.00;;;;;;5081248;28;20399;-82
2021/12/15 06:17:10;;;;;;;;;;;9.10;1.00;;;;;;5082053;28;19916;-82
2021/12/15 06:19:36;;;;;;;;;;;9.10;1.00;;;;;;5078717;28;19919;-82
2021/12/15 06:22:02;;;;;;;;;;;9.10;1.00;;;;;;5075684;28;19912;-81
2021/12/15 06:24:28;;;;;;;;;;;9.10;1.00;;;;;;5076504;28;19994;-82
2021/12/15 06:26:56;;;;;;;;;;;9.10;1.00;;;;;;5075791;28;19956;-82
2021/12/15 06:29:22;;;;;;;;;;;9.10;1.00;;;;;;5057474;28;20368;-82
2021/12/15 06:31:48;;;;;;;;;;;9.10;1.00;;;;;;5061681;28;19912;-82
2021/12/15 06:34:15;;;;;;;;;;;9.10;1.00;;;;;;5073718;28;19909;-81
2021/12/15 06:36:41;;;;;;;;;;;9.10;1.00;;;;;;5076167;28;19913;-81
2021/12/15 06:39:06;;;;;;;;;;;9.10;1.00;;;;;;5076581;28;19912;-81
2021/12/15 06:41:32;;;;;;;;;;;9.10;1.00;;;;;;5074698;28;20375;-81
2021/12/15 06:43:59;;;;;;;;;;;9.10;1.00;;;;;;5075252;28;19909;-81
2021/12/15 06:59:41;;;;;;;;;;;9.10;1.00;;;;;;5070771;28;19917;-81
2021/12/15 07:02:07;;;;;;;;;;;9.10;1.00;;;;;;5075428;28;19917;-82
2021/12/15 07:04:32;;;;;;;;;;;9.10;1.00;;;;;;5057576;28;20023;-82
2021/12/15 07:06:58;;;;;;;;;;;9.20;1.00;;;;;;5069490;28;20003;-82
2021/12/15 07:09:24;;;;;;;;;;;9.30;1.00;;;;;;5072818;28;20606;-81
2021/12/15 07:11:51;;;;;;;;;;;9.30;1.00;;;;;;5078581;28;19924;-82
2021/12/15 07:14:18;;;;;;;;;;;9.30;1.00;;;;;;5078160;28;19919;-81
2021/12/15 07:16:46;;;;;;;;;;;9.30;1.00;;;;;;5078494;28;20292;-82
2021/12/15 07:19:32;;;;;;;;;;;9.30;1.00;;;;;;5076123;28;19919;-82
2021/12/15 07:22:16;;;;;;;;;;;9.40;1.00;;;;;;5087281;28;19919;-82
2021/12/15 07:24:41;;;;;;;;;;;9.40;1.00;;;;;;5076788;28;19913;-82
2021/12/15 07:27:07;;;;;;;;;;;9.30;1.00;;;;;;5078145;28;19923;-82
2021/12/15 07:29:34;;;;;;;;;;;9.30;1.00;;;;;;5078415;28;19916;-82
2021/12/15 07:31:59;;;;;;;;;;;9.30;1.00;;;;;;5076275;28;20322;-81
2021/12/15 07:34:25;;;;;;;;;;;9.40;1.00;;;;;;5079540;28;20011;-81
2021/12/15 07:36:50;;;;;;;;;;;9.40;1.00;;;;;;5079404;28;20364;-82
2021/12/15 07:39:16;;;;;;;;;;;9.40;1.00;;;;;;5079003;28;19912;-82
2021/12/15 07:41:50;;;;;;;;;;;9.40;1.00;;;;;;5084487;28;20414;-82
2021/12/15 07:44:16;;;;;;;;;;;9.40;1.00;;;;;;5080232;28;19947;-81
2021/12/15 07:46:43;;;;;;;;;;;9.40;1.00;;;;;;5079305;28;19917;-80
2021/12/15 07:49:08;;;;;;;;;;;9.40;1.00;;;;;;5082607;28;19912;-80
2021/12/15 07:51:34;;;;;;;;;;;9.40;1.00;;;;;;5081736;28;20028;-80
2021/12/15 07:53:59;;;;;;;;;;;9.40;1.00;;;;;;5089293;28;19916;-80
2021/12/15 07:56:25;;;;;;;;;;;9.50;1.00;;;;;;5078136;28;20274;-80
2021/12/15 07:58:50;;;;;;;;;;;9.50;1.00;;;;;;5074976;28;19989;-80
2021/12/15 08:01:18;;;;;;;;;;;9.50;1.00;;;;;;5087583;28;19958;-81
2021/12/15 08:03:44;;;;;;;;;;;9.50;1.00;;;;;;5075228;28;19913;-80
2021/12/15 08:06:09;;;;;;;;;;;9.50;1.00;;;;;;5076993;28;19916;-81
2021/12/15 08:08:35;;;;;;;;;;;9.50;1.00;;;;;;5076563;28;19927;-80
2021/12/15 08:11:00;;;;;;;;;;;9.50;1.00;;;;;;5077299;28;20386;-80
2021/12/15 08:13:27;;;;;;;;;;;9.50;1.00;;;;;;5085377;28;19916;-80
2021/12/15 08:15:53;;;;;;;;;;;9.50;1.00;;;;;;5077578;28;19920;-81
2021/12/15 08:18:19;;;;;;;;;;;9.60;1.00;;;;;;5081675;28;19913;-80
2021/12/15 08:20:45;;;;;;;;;;;9.60;1.00;;;;;;5077205;28;19913;-80
2021/12/15 08:23:10;;;;;;;;;;;9.60;1.00;;;;;;5084640;28;20011;-81
2021/12/15 08:25:37;;;;;;;;;;;9.60;1.00;;;;;;5079913;28;20347;-81
2021/12/15 08:28:04;;;;;;;;;;;9.60;1.00;;;;;;5077655;28;19920;-81
2021/12/15 08:30:30;;;;;;;;;;;9.60;1.00;;;;;;5078194;28;19923;-80
2021/12/15 08:32:57;;;;;;;;;;;9.60;1.00;;;;;;5081960;28;19947;-81
2021/12/15 08:35:29;;;;;;;;;;;9.60;1.00;;;;;;5079905;28;19912;-81
2021/12/15 08:37:56;;;;;;;;;;;9.60;1.00;;;;;;5083833;28;19912;-82
2021/12/15 08:40:22;;;;;;;;;;;9.60;1.00;;;;;;5079400;28;19924;-81
2021/12/15 08:42:48;;;;;;;;;;;9.60;1.00;;;;;;5078783;28;19912;-81
2021/12/15 08:45:14;;;;;;;;;;;9.60;1.00;;;;;;5078765;28;19916;-81
2021/12/15 08:47:40;;;;;;;;;;;9.60;1.00;;;;;;5079295;28;19993;-82
2021/12/15 08:50:07;;;;;;;;;;;9.60;1.00;;;;;;5079069;28;19924;-81
2021/12/15 08:52:33;;;;;;;;;;;9.60;1.00;;;;;;5088906;28;19912;-81
2021/12/15 08:54:58;;;;;;;;;;;9.60;1.00;;;;;;5075820;28;19918;-81
2021/12/15 08:57:24;;;;;;;;;;;9.60;1.00;;;;;;5078636;28;19943;-82
2021/12/15 08:59:49;;;;;;;;;;;9.60;1.00;;;;;;5079593;28;19962;-82
2021/12/15 09:02:15;;;;;;;;;;;9.60;1.00;;;;;;5084477;28;19943;-81
2021/12/15 09:04:40;;;;;;;;;;;9.70;1.00;;;;;;5079788;28;19937;-82
2021/12/15 09:07:06;;;;;;;;;;;9.70;1.00;;;;;;5083308;28;19999;-81
2021/12/15 09:09:31;;;;;;;;;;;9.70;1.00;;;;;;5079341;28;19923;-82
2021/12/15 09:11:57;;;;;;;;;;;9.80;1.00;;;;;;5077751;28;19916;-82
2021/12/15 09:14:22;;;;;;;;;;;9.80;1.00;;;;;;5078466;28;19919;-82
2021/12/15 09:16:49;;;;;;;;;;;9.80;1.00;;;;;;5071851;28;19920;-82
2021/12/15 09:19:15;;;;;;;;;;;9.80;1.00;;;;;;5080681;28;19987;-82
2021/12/15 09:21:42;;;;;;;;;;;9.80;1.00;;;;;;5078045;28;20010;-83
2021/12/15 09:24:09;;;;;;;;;;;9.80;1.00;;;;;;5086030;28;19912;-83
2021/12/15 09:26:36;;;;;;;;;;;9.80;1.00;;;;;;5082971;28;19916;-82
2021/12/15 09:29:02;;;;;;;;;;;9.90;1.00;;;;;;5079986;28;19913;-82
2021/12/15 09:31:27;;;;;;;;;;;9.90;1.00;;;;;;5075934;28;19993;-82
2021/12/15 09:33:54;;;;;;;;;;;9.90;1.00;;;;;;5073152;28;19955;-82
2021/12/15 09:36:20;;;;;;;;;;;9.90;1.00;;;;;;5076774;28;19965;-83
2021/12/15 09:38:49;;;;;;;;;;;10.00;1.00;;;;;;5081226;28;19966;-81
2021/12/15 09:41:15;;;;;;;;;;;10.00;1.00;;;;;;5074450;28;19965;-82
2021/12/15 09:43:41;;;;;;;;;;;10.00;1.00;;;;;;5075772;28;19916;-82
2021/12/15 09:46:29;;;;;;;;;;;10.10;1.00;;;;;;5079300;28;19920;-82
2021/12/15 09:57:24;;;;;;;;;;;10.20;1.00;;;;;;5076671;28;19996;-82
2021/12/15 10:10:44;;;;;;;;;;;10.30;1.00;;;;;;5076303;28;19912;-82
2021/12/15 10:19:18;;;;;;;;;;;10.30;1.00;;;;;;5078477;28;19920;-82
2021/12/15 10:21:54;;;;;;;;;;;10.30;1.00;;;;;;5069436;28;19919;-82
2021/12/15 10:24:25;;;;;;;;;;;10.40;1.00;;;;;;5076381;28;19931;-82
2021/12/15 10:26:55;;;;;;;;;;;10.40;1.00;;;;;;5080540;28;19919;-82
2021/12/15 10:29:21;;;;;;;;;;;10.50;1.00;;;;;;5078958;28;19913;-82
2021/12/15 10:31:55;;;;;;;;;;;10.50;1.00;;;;;;5096450;28;19958;-82
2021/12/15 10:34:21;;;;;;;;;;;10.50;1.00;;;;;;5081484;28;19966;-83
2021/12/15 10:36:47;;;;;;;;;;;10.50;1.00;;;;;;5079295;28;19916;-82
2021/12/15 10:39:12;;;;;;;;;;;10.60;1.00;;;;;;5076183;28;20373;-82
2021/12/15 10:41:40;;;;;;;;;;;10.60;1.00;;;;;;5083651;28;19961;-82
2021/12/15 10:44:10;;;;;;;;;;;10.60;1.00;;;;;;5077917;28;19912;-82
2021/12/15 10:46:49;;;;;;;;;;;10.60;1.00;;;;;;5081765;28;19923;-82
2021/12/15 10:49:17;;;;;;;;;;;10.70;1.00;;;;;;5079532;28;19912;-82
2021/12/15 10:51:51;;;;;;;;;;;10.60;1.00;;;;;;5084606;28;20437;-84
2021/12/15 10:54:27;;;;;;;;;;;10.60;1.00;;;;;;5083902;28;19920;-82
2021/12/15 10:56:58;;;;;;;;;;;10.60;1.00;;;;;;5085678;28;19920;-82
2021/12/15 10:59:25;;;;;;;;;;;10.60;1.00;;;;;;5081374;28;19912;-82
2021/12/15 11:01:52;;;;;;;;;;;10.70;1.00;;;;;;5073745;28;19920;-82
2021/12/15 11:04:36;;;;;;;;;;;10.60;1.00;;;;;;5077141;28;19927;-81
2021/12/15 11:07:04;;;;;;;;;;;10.60;1.00;;;;;;5076627;28;19924;-82
2021/12/15 11:09:36;;;;;;;;;;;10.60;1.00;;;;;;5071248;28;19913;-82
2021/12/15 11:12:08;;;;;;;;;;;10.60;1.00;;;;;;5076794;28;19920;-82
2021/12/15 11:14:34;;;;;;;;;;;10.60;1.00;;;;;;5082308;28;20408;-82
2021/12/15 11:17:03;;;;;;;;;;;10.70;1.00;;;;;;5067068;28;19943;-82
2021/12/15 11:19:55;;;;;;;;;;;10.60;1.00;;;;;;5076623;28;19912;-82
2021/12/15 11:22:29;;;;;;;;;;;10.60;1.00;;;;;;5061347;28;19917;-82
2021/12/15 11:24:55;;;;;;;;;;;10.60;1.00;;;;;;5080275;28;19919;-82
2021/12/15 11:27:20;;;;;;;;;;;10.60;1.00;;;;;;5080167;28;20419;-82
2021/12/15 11:29:46;;;;;;;;;;;10.60;1.00;;;;;;5080412;28;19958;-82
2021/12/15 11:32:30;;;;;;;;;;;10.60;1.00;;;;;;5079051;28;20439;-82
2021/12/15 11:35:06;;;;;;;;;;;10.70;1.00;;;;;;5066922;28;19967;-82
2021/12/15 11:37:49;;;;;;;;;;;10.70;1.00;;;;;;5073757;28;19919;-81
2021/12/15 11:40:16;;;;;;;;;;;10.70;1.00;;;;;;5084481;28;19912;-82
2021/12/15 11:42:43;;;;;;;;;;;10.70;1.00;;;;;;5081934;28;19920;-82
2021/12/15 11:45:10;;;;;;;;;;;10.80;1.00;;;;;;5078252;28;19912;-82
2021/12/15 11:47:37;;;;;;;;;;;10.80;1.00;;;;;;5076561;28;20418;-81
2021/12/15 11:50:21;;;;;;;;;;;10.80;1.00;;;;;;5085144;28;19933;-82
2021/12/15 11:52:48;;;;;;;;;;;10.80;1.00;;;;;;5080860;28;19920;-82
2021/12/15 11:55:22;;;;;;;;;;;10.90;1.00;;;;;;5083783;28;20295;-82
2021/12/15 11:57:48;;;;;;;;;;;10.80;1.00;;;;;;5071477;28;20532;-82
2021/12/15 12:00:15;;;;;;;;;;;10.80;1.00;;;;;;5079256;28;19955;-82
2021/12/15 12:02:42;;;;;;;;;;;10.80;1.00;;;;;;5081212;28;19920;-82
2021/12/15 12:05:16;;;;;;;;;;;10.80;1.00;;;;;;5084464;28;20010;-81
2021/12/15 12:07:46;;;;;;;;;;;10.90;1.00;;;;;;5077475;28;19917;-78
2021/12/15 12:10:19;;;;;;;;;;;10.80;1.00;;;;;;5078463;28;19912;-82
2021/12/15 12:13:22;;;;;;;;;;;10.90;1.00;;;;;;5061667;28;19913;-81
2021/12/15 12:15:39;;;;;;;;;;;10.90;1.00;;;;;;5074122;28;19935;-81
2021/12/15 12:18:10;;;;;;;;;;;10.90;1.00;;;;;;5070570;28;19917;-80
2021/12/15 12:20:38;;;;;;;;;;;10.90;1.00;;;;;;5085452;28;19912;-81
2021/12/15 12:23:05;;;;;;;;;;;10.90;1.00;;;;;;5075003;28;20387;-82
2021/12/15 12:25:35;;;;;;;;;;;10.80;1.00;;;;;;5070779;28;19916;-81
2021/12/15 12:28:01;;;;;;;;;;;10.80;1.00;;;;;;5079599;28;19919;-82
2021/12/15 12:30:31;;;;;;;;;;;10.80;1.00;;;;;;5090087;28;19920;-82
2021/12/15 12:32:58;;;;;;;;;;;10.80;1.00;;;;;;5093399;28;19912;-82
2021/12/15 12:35:25;;;;;;;;;;;10.80;1.00;;;;;;5066721;28;19916;-82
2021/12/15 12:37:53;;;;;;;;;;;10.80;1.00;;;;;;5085532;28;20007;-81
2021/12/15 12:40:20;;;;;;;;;;;10.80;1.00;;;;;;5077116;28;19919;-82
2021/12/15 12:42:46;;;;;;;;;;;10.80;1.00;;;;;;5075467;28;20368;-81
2021/12/15 12:45:18;;;;;;;;;;;10.80;1.00;;;;;;5078348;28;19950;-82
2021/12/15 12:48:01;;;;;;;;;;;10.80;1.00;;;;;;5078360;28;19952;-82
2021/12/15 13:01:07;;;;;;;;;;;10.80;1.00;;;;;;5061482;28;19912;-82
2021/12/15 13:03:36;;;;;;;;;;;10.80;1.00;;;;;;5058979;28;20391;-82
2021/12/15 13:06:13;;;;;;;;;;;10.80;1.00;;;;;;5097340;28;19989;-82
2021/12/15 13:08:39;;;;;;;;;;;10.80;1.00;;;;;;5081241;28;19912;-82
2021/12/15 13:11:07;;;;;;;;;;;10.80;1.00;;;;;;5078988;28;19913;-82
2021/12/15 13:13:51;;;;;;;;;;;10.80;1.00;;;;;;5067632;28;19913;-82
2021/12/15 13:16:31;;;;;;;;;;;10.90;1.00;;;;;;5090888;28;19994;-82
2021/12/15 13:19:17;;;;;;;;;;;10.90;1.00;;;;;;5056406;28;19913;-82
2021/12/15 13:28:42;;;;;;;;;;;10.90;1.00;;;;;;5091867;28;19919;-82
2021/12/15 13:30:22;;;;;;;;;;;11.00;1.00;;;;;;5078449;28;20312;-80
2021/12/15 13:32:48;;;;;;;;;;;10.90;1.00;;;;;;5068014;28;19908;-82
2021/12/15 13:35:23;;;;;;;;;;;11.00;1.00;;;;;;5075461;28;19984;-82
2021/12/15 13:37:55;;;;;;;;;;;11.10;1.00;;;;;;5077675;28;20544;-82
2021/12/15 13:40:39;;;;;;;;;;;11.10;1.00;;;;;;5072454;28;19921;-81
2021/12/15 13:43:04;;;;;;;;;;;11.10;1.00;;;;;;5078833;28;19919;-82
2021/12/15 13:45:31;;;;;;;;;;;11.10;1.00;;;;;;5076825;28;19916;-81
2021/12/15 13:47:57;;;;;;;;;;;11.10;1.00;;;;;;5076479;28;19962;-81
2021/12/15 13:50:26;;;;;;;;;;;11.20;1.00;;;;;;5078074;28;20269;-81
2021/12/15 13:52:59;;;;;;;;;;;11.10;1.00;;;;;;5075693;28;20193;-81
2021/12/15 13:55:27;;;;;;;;;;;11.10;1.00;;;;;;5075891;28;19931;-81
2021/12/15 13:57:58;;;;;;;;;;;11.10;1.00;;;;;;5066909;28;19912;-81
2021/12/15 14:00:26;;;;;;;;;;;11.10;1.00;;;;;;5076546;28;20338;-81
2021/12/15 14:02:54;;;;;;;;;;;11.10;1.00;;;;;;5074234;28;19909;-81
2021/12/15 14:05:23;;;;;;;;;;;11.10;1.00;;;;;;5076775;28;19924;-81
2021/12/15 14:07:53;;;;;;;;;;;11.10;1.00;;;;;;5069735;28;19986;-81
2021/12/15 14:10:20;;;;;;;;;;;11.10;1.00;;;;;;5070746;28;19991;-81
2021/12/15 14:12:49;;;;;;;;;;;11.10;1.00;;;;;;5073745;28;19920;-81
2021/12/15 14:15:33;;;;;;;;;;;11.10;1.00;;;;;;5070048;28;19913;-81
2021/12/15 14:18:06;;;;;;;;;;;11.00;1.00;;;;;;5074897;28;19913;-81
2021/12/15 14:20:35;;;;;;;;;;;10.90;1.00;;;;;;5071998;28;19913;-80
2021/12/15 14:23:03;;;;;;;;;;;10.90;1.00;;;;;;5073975;28;19915;-81
2021/12/15 14:25:33;;;;;;;;;;;10.80;1.00;;;;;;5074315;28;19920;-81
2021/12/15 14:28:12;;;;;;;;;;;10.80;1.00;;;;;;5074568;28;19973;-81
2021/12/15 14:30:39;;;;;;;;;;;10.80;1.00;;;;;;5071755;28;19923;-81
2021/12/15 14:33:16;;;;;;;;;;;10.70;1.00;;;;;;5078253;28;19912;-81
2021/12/15 14:35:42;;;;;;;;;;;10.70;1.00;;;;;;5072459;28;19919;-81
2021/12/15 14:38:07;;;;;;;;;;;10.80;1.00;;;;;;5064809;28;19996;-81
2021/12/15 14:40:33;;;;;;;;;;;10.70;1.00;;;;;;5069786;28;19909;-81
2021/12/15 14:42:58;;;;;;;;;;;10.70;1.00;;;;;;5067222;28;19919;-81
2021/12/15 14:45:24;;;;;;;;;;;10.70;1.00;;;;;;5076166;28;20053;-81
2021/12/15 14:47:49;;;;;;;;;;;10.70;1.00;;;;;;5094220;28;19912;-81
2021/12/15 14:50:17;;;;;;;;;;;10.70;1.00;;;;;;5081535;28;20013;-81
2021/12/15 14:52:47;;;;;;;;;;;10.60;1.00;;;;;;5080511;28;19912;-82
2021/12/15 14:55:16;;;;;;;;;;;10.60;1.00;;;;;;5065399;28;20424;-82
2021/12/15 14:57:41;;;;;;;;;;;10.60;1.00;;;;;;5060002;28;19913;-82
2021/12/15 15:00:18;;;;;;;;;;;10.60;1.00;;;;;;5060027;28;19915;-82
2021/12/15 15:02:44;;;;;;;;;;;10.60;1.00;;;;;;5073593;28;20005;-82
2021/12/15 15:05:12;;;;;;;;;;;10.60;1.00;;;;;;5071969;28;20446;-82
2021/12/15 15:07:41;;;;;;;;;;;10.60;1.00;;;;;;5075582;28;19935;-82
2021/12/15 15:10:11;;;;;;;;;;;10.50;1.00;;;;;;5076245;28;19928;-82
2021/12/15 15:12:38;;;;;;;;;;;10.50;1.00;;;;;;5077059;28;19912;-82
2021/12/15 15:15:10;;;;;;;;;;;10.50;1.00;;;;;;5080218;28;19912;-82
2021/12/15 15:17:47;;;;;;;;;;;10.50;1.00;;;;;;5077445;28;19913;-82
2021/12/15 15:20:14;;;;;;;;;;;10.40;1.00;;;;;;5059172;28;19959;-82
2021/12/15 15:22:40;;;;;;;;;;;10.40;1.00;;;;;;5071448;28;20281;-81
2021/12/15 15:25:07;;;;;;;;;;;10.40;1.00;;;;;;5077498;28;19936;-81
2021/12/15 15:27:33;;;;;;;;;;;10.40;1.00;;;;;;5091071;28;19912;-81
2021/12/15 15:30:02;;;;;;;;;;;10.40;1.00;;;;;;5097110;28;19918;-81
2021/12/15 15:32:31;;;;;;;;;;;10.40;1.00;;;;;;5076756;28;19912;-81
2021/12/15 15:35:00;;;;;;;;;;;10.40;1.00;;;;;;5080793;28;19991;-82
2021/12/15 15:37:32;;;;;;;;;;;10.30;1.00;;;;;;5080279;28;20338;-82
2021/12/15 15:40:18;;;;;;;;;;;10.30;1.00;;;;;;5082118;28;20276;-81
2021/12/15 15:42:44;;;;;;;;;;;10.30;1.00;;;;;;5088220;28;19987;-82
2021/12/15 15:45:24;;;;;;;;;;;10.30;1.00;;;;;;5088772;28;19916;-81
2021/12/15 15:47:50;;;;;;;;;;;10.30;1.00;;;;;;5080457;28;20026;-82
2021/12/15 15:50:16;;;;;;;;;;;10.30;1.00;;;;;;5075247;28;20385;-81
2021/12/15 15:52:42;;;;;;;;;;;10.30;1.00;;;;;;5072957;28;20943;-81
2021/12/15 15:55:08;;;;;;;;;;;10.30;1.00;;;;;;5067228;28;19958;-81
2021/12/15 15:57:34;;;;;;;;;;;10.30;1.00;;;;;;5065503;28;19921;-81
2021/12/15 15:59:59;;;;;;;;;;;10.20;1.00;;;;;;5072597;28;19912;-81
2021/12/15 16:02:25;;;;;;;;;;;10.20;1.00;;;;;;5073818;28;19934;-81
2021/12/15 16:04:51;;;;;;;;;;;10.10;1.00;;;;;;5067683;28;21184;-81
2021/12/15 16:07:18;;;;;;;;;;;10.10;1.00;;;;;;5057398;28;19917;-81
2021/12/15 16:09:44;;;;;;;;;;;10.10;1.00;;;;;;5074423;28;19928;-81
2021/12/15 16:12:10;;;;;;;;;;;10.10;1.00;;;;;;5073349;28;20140;-81
2021/12/15 16:14:41;;;;;;;;;;;10.10;1.00;;;;;;5078551;28;19939;-81